INFORMACIÓN METAR y TAF
METAR FOR ENAL
ADDS - METARS form results

(0814 UTC 15 April 2021)
Data provider http://aviationweather.gov/metar/data/
 
METAR text: ENAL 150750Z 14007KT 9999 SCT027 BKN042 06/M01 Q1035
Conditions at: ENAL (ALESUND/VIGRA , NO) observed 0750 UTC 15 April 2021
Temperature: 6.0°C (43°F)
Dewpoint: -1.0°C (30°F) [RH = 61%]
Pressure (altimeter): 30.56 inches Hg (1035.0 mb)
Winds: from the SE (140 degrees) at 8 MPH (7 knots; 3.6 m/s)
Visibility: 6 or more miles (10+ km)
Ceiling: 4200 feet AGL
Clouds: scattered clouds at 2700 feet AGL
broken clouds at 4200 feet AGL
Weather: no significant weather observed at this time

METAR text: ENAL 150720Z 15006KT 9999 SCT030 BKN044 06/M00 Q1035
Conditions at: ENAL (ALESUND/VIGRA , NO) observed 0720 UTC 15 April 2021
Temperature: 6.0°C (43°F)
Dewpoint: 0.0°C (32°F) [RH = 65%]
Pressure (altimeter): 30.56 inches Hg (1035.0 mb)
Winds: from the SSE (150 degrees) at 7 MPH (6 knots; 3.1 m/s)
Visibility: 6 or more miles (10+ km)
Ceiling: 4400 feet AGL
Clouds: scattered clouds at 3000 feet AGL
broken clouds at 4400 feet AGL
Weather: no significant weather observed at this time

Forecast for: ENAL (ALESUND/VIGRA , NO)
Text: TAF ENAL 150500Z 1506/1515 VRB06KT 9999 FEW025 BKN040
Forecast period: 0600 to 1500 UTC 15 April 2021
Forecast type: FROM: standard forecast or significant change
Winds: variable direction winds at 7 MPH (6 knots; 3.1 m/s)
Visibility: 6 or more miles (10+ km)
Ceiling: 4000 feet AGL
Clouds: few clouds at 2500 feet AGL
broken clouds at 4000 feet AGL
Weather: no significant weather forecast for this period

 MAPA DE AEROPUERTO

 INFORMACIÓN DE PISTA
Pista 07 Longitud 7592 ft Ancho 148 ft
Elevación 34 ft Umbral desplazado 490 ft Rumbo de pista 65
Pista 25 Longitud 7592 ft Ancho 148 ft
Elevación 48 ft Umbral desplazado 755 ft Rumbo de pista 245

 FRECUANCIAS DEL AEROPUERTO
Tipo ATIS Nombre ATIS Frecuencia 128.65 MHZ
Tipo TWR Nombre TWR Frecuencia 119.85 MHZ

 RADIO AYUDAS DEL AEROPUERTO
Tipo NDB Nombre Vigra Frecuencia 355 KHZ
Tipo TACAN Nombre Vigra Frecuencia 112400 KHZ
Tipo VOR-DME Nombre Vigra Frecuencia 115800 KHZ



Powered by Virtual Airlines Manager [v2.6.2]